Time;durP1;ratioP1;P1;durP2;ratioP2;P2;SDS_P1;SDS_P2;PMS_P1;PMS_P2;Temp;Humidity;BMP_temperature;BMP_pressure;BME280_temperature;BME280_humidity;BME280_pressure;Samples;Min_cycle;Max_cycle;Signal;HPM_P1;HPM_P2
2023/06/13 00:03:37;;;;;;;1.90;1.80;;;;;;;19.55;54.76;96883.94;10515167;28;20061;-72
2023/06/13 00:08:59;;;;;;;2.20;1.90;;;;;;;19.54;54.92;96876.94;10508036;28;20488;-72
2023/06/13 00:14:20;;;;;;;2.30;1.95;;;;;;;19.55;54.71;96875.81;10508522;28;20484;-72
2023/06/13 00:19:39;;;;;;;1.85;1.75;;;;;;;19.55;54.93;96866.94;10503397;28;20097;-72
2023/06/13 00:24:59;;;;;;;2.10;1.90;;;;;;;19.55;54.84;96861.53;10502203;28;20400;-72
2023/06/13 00:30:18;;;;;;;2.28;2.08;;;;;;;19.54;54.89;96860.72;10500874;28;20040;-72
2023/06/13 00:35:38;;;;;;;1.83;1.73;;;;;;;19.55;54.80;96873.13;10472866;28;20094;-72
2023/06/13 00:40:57;;;;;;;2.20;2.00;;;;;;;19.54;54.63;96858.03;10500520;28;20503;-72
2023/06/13 00:46:21;;;;;;;1.83;1.73;;;;;;;19.54;54.80;96858.03;10514446;28;20408;-72
2023/06/13 00:51:42;;;;;;;1.90;1.80;;;;;;;19.54;54.87;96849.94;10500123;28;20401;-72
2023/06/13 00:57:02;;;;;;;3.08;1.90;;;;;;;19.55;55.05;96850.72;10500094;28;20093;-72
2023/06/13 01:02:23;;;;;;;2.40;1.80;;;;;;;19.54;54.78;96849.13;10481555;28;20048;-75
2023/06/13 01:07:45;;;;;;;1.80;1.70;;;;;;;19.54;54.92;96851.81;10499416;28;20058;-75
2023/06/13 01:13:16;;;;;;;1.90;1.80;;;;;;;19.54;55.00;96849.94;10514310;28;20041;-75
2023/06/13 01:18:39;;;;;;;2.00;1.85;;;;;;;19.54;54.96;96843.72;10499094;28;20045;-75
2023/06/13 01:24:05;;;;;;;2.00;1.90;;;;;;;19.54;54.95;96849.94;10484947;28;20040;-75
2023/06/13 01:29:27;;;;;;;2.00;1.90;;;;;;;19.54;55.09;96841.00;10484493;28;20044;-75
2023/06/13 01:34:49;;;;;;;1.88;1.77;;;;;;;19.53;55.02;96855.66;10498789;28;20045;-75
2023/06/13 01:40:10;;;;;;;2.58;1.80;;;;;;;19.53;54.96;96842.91;10498657;28;20500;-75
2023/06/13 01:45:30;;;;;;;1.80;1.70;;;;;;;19.53;55.04;96842.91;10497912;28;20033;-75
2023/06/13 01:51:11;;;;;;;1.70;1.60;;;;;;;19.52;55.03;96841.34;10497795;28;20048;-75
2023/06/13 01:56:33;;;;;;;1.95;1.83;;;;;;;19.53;55.14;96837.53;10497495;28;20052;-75
2023/06/13 02:01:55;;;;;;;2.08;1.90;;;;;;;19.53;54.98;96842.91;10480150;28;20102;-75
2023/06/13 02:07:15;;;;;;;2.80;2.00;;;;;;;19.52;54.97;96829.72;10483324;28;20047;-75
2023/06/13 02:12:34;;;;;;;1.90;1.77;;;;;;;19.52;55.03;96827.03;10496959;28;20044;-75
2023/06/13 02:17:55;;;;;;;1.90;1.80;;;;;;;19.52;55.03;96827.84;10511923;28;20542;-75
2023/06/13 02:23:15;;;;;;;2.10;1.90;;;;;;;19.52;55.25;96830.53;10496568;28;20047;-75
2023/06/13 02:28:35;;;;;;;1.83;1.70;;;;;;;19.51;54.97;96828.94;10511358;28;20097;-75
2023/06/13 02:33:54;;;;;;;2.15;1.85;;;;;;;19.52;55.10;96821.63;10496152;28;20481;-75
2023/06/13 02:39:14;;;;;;;1.80;1.63;;;;;;;19.52;55.19;96827.03;10482012;28;20044;-75
2023/06/13 02:44:34;;;;;;;2.33;1.50;;;;;;;19.51;55.16;96817.34;10510518;28;20482;-75
2023/06/13 02:49:54;;;;;;;1.80;1.70;;;;;;;19.51;55.00;96815.44;10495733;28;20559;-75
2023/06/13 02:55:13;;;;;;;1.70;1.60;;;;;;;19.51;55.13;96811.94;10495512;28;20373;-75
2023/06/13 03:00:33;;;;;;;1.80;1.70;;;;;;;19.51;55.10;96828.16;10467596;28;20040;-76
2023/06/13 03:06:02;;;;;;;1.67;1.58;;;;;;;19.50;55.10;96807.66;10441038;28;20480;-75
2023/06/13 03:11:28;;;;;;;1.60;1.50;;;;;;;19.50;55.21;96815.75;10440269;28;20053;-75
2023/06/13 03:16:48;;;;;;;2.08;1.88;;;;;;;19.50;55.19;96824.66;10467924;28;20048;-75
2023/06/13 03:22:13;;;;;;;1.80;1.70;;;;;;;19.50;55.16;96824.66;10439867;28;20056;-75
2023/06/13 03:27:33;;;;;;;1.70;1.60;;;;;;;19.50;55.24;96815.75;10454187;28;20041;-75
2023/06/13 03:32:54;;;;;;;1.60;1.50;;;;;;;19.51;55.12;96828.16;10439755;28;20120;-75
2023/06/13 03:38:15;;;;;;;1.85;1.70;;;;;;;19.49;54.99;96825.00;10426264;28;20047;-75
2023/06/13 03:43:35;;;;;;;1.70;1.60;;;;;;;19.50;55.09;96829.25;10439632;28;20045;-75
2023/06/13 03:48:56;;;;;;;1.70;1.60;;;;;;;19.50;55.03;96819.25;10454049;28;20049;-75
2023/06/13 03:54:16;;;;;;;1.77;1.67;;;;;;;19.50;55.04;96827.38;10470396;28;20052;-75
2023/06/13 03:59:36;;;;;;;1.60;1.50;;;;;;;19.50;55.04;96829.25;10475888;28;20049;-75
2023/06/13 04:04:56;;;;;;;1.52;1.42;;;;;;;19.50;55.14;96827.38;10497548;28;20413;-75
2023/06/13 04:10:16;;;;;;;2.75;1.58;;;;;;;19.49;55.17;96814.97;10487997;28;20054;-75
2023/06/13 04:15:36;;;;;;;2.92;2.00;;;;;;;19.51;55.22;96811.94;10487634;28;20511;-75
2023/06/13 04:20:57;;;;;;;2.22;2.03;;;;;;;19.49;55.64;96814.97;10473936;28;20413;-75
2023/06/13 04:26:17;;;;;;;2.65;1.45;;;;;;;19.50;55.75;96805.75;10501406;28;20397;-75
2023/06/13 04:31:37;;;;;;;3.90;1.92;;;;;;;19.50;53.75;96807.66;10487095;28;20040;-76
2023/06/13 04:36:56;;;;;;;4.13;2.20;;;;;;;19.49;52.73;96814.97;10473241;28;20074;-75
2023/06/13 04:42:24;;;;;;;3.08;2.35;;;;;;;19.47;52.16;96806.38;10500612;28;20045;-76
2023/06/13 04:47:45;;;;;;;3.67;2.50;;;;;;;19.49;51.96;96812.25;10487425;28;20051;-75
2023/06/13 04:53:07;;;;;;;4.30;3.05;;;;;;;19.45;51.50;96803.22;10499984;28;20122;-78
2023/06/13 04:58:27;;;;;;;5.20;2.70;;;;;;;19.46;51.51;96810.19;10500720;28;20040;-75
2023/06/13 05:03:51;;;;;;;6.05;2.92;;;;;;;19.43;50.98;96816.25;10490905;28;20105;-75
2023/06/13 05:09:12;;;;;;;16.77;5.53;;;;;;;19.38;51.09;96802.91;10486341;28;20044;-75
2023/06/13 05:14:31;;;;;;;15.23;5.55;;;;;;;19.40;52.22;96811.50;10513600;28;20484;-76
2023/06/13 05:19:52;;;;;;;12.80;5.28;;;;;;;19.43;52.89;96808.16;10499276;28;20056;-75
2023/06/13 05:25:12;;;;;;;12.30;5.15;;;;;;;19.43;53.23;96800.06;10499310;28;20059;-75
2023/06/13 05:30:33;;;;;;;7.47;3.40;;;;;;;19.44;53.57;96803.53;10498960;28;20040;-75
2023/06/13 05:35:53;;;;;;;9.55;4.70;;;;;;;19.45;53.87;96805.91;10498649;28;20048;-75
2023/06/13 05:41:13;;;;;;;13.25;4.85;;;;;;;19.45;54.02;96800.53;10498487;28;20040;-76
2023/06/13 05:46:34;;;;;;;15.20;5.38;;;;;;;19.45;54.30;96802.44;10497960;28;20036;-75
2023/06/13 05:51:53;;;;;;;15.18;5.13;;;;;;;19.45;54.34;96794.31;10469729;28;20424;-75
2023/06/13 05:57:14;;;;;;;14.63;5.50;;;;;;;19.47;54.35;96802.91;10497795;28;20044;-75
2023/06/13 06:02:35;;;;;;;16.67;5.28;;;;;;;19.46;54.58;96799.38;10469384;28;20114;-75
2023/06/13 06:07:55;;;;;;;12.63;5.55;;;;;;;19.47;54.58;96790.19;10497228;28;20040;-75
2023/06/13 06:13:14;;;;;;;16.38;5.68;;;;;;;19.46;54.76;96788.59;10483013;28;20086;-75
2023/06/13 06:18:33;;;;;;;14.40;5.72;;;;;;;19.48;54.81;96791.78;10496066;28;20045;-75
2023/06/13 06:23:53;;;;;;;13.90;5.80;;;;;;;19.47;54.82;96784.78;10492380;28;20045;-75
2023/06/13 06:29:12;;;;;;;12.88;5.65;;;;;;;19.47;55.10;96782.06;10511312;28;20041;-75
2023/06/13 06:34:32;;;;;;;12.52;5.30;;;;;;;19.48;55.09;96786.38;10496318;28;20043;-76
2023/06/13 06:39:51;;;;;;;12.90;5.28;;;;;;;19.48;55.12;96791.78;10510110;28;20044;-76
2023/06/13 06:45:12;;;;;;;16.52;5.78;;;;;;;19.49;55.13;96784.47;10495892;28;20408;-75
2023/06/13 06:50:31;;;;;;;11.07;5.22;;;;;;;19.48;55.11;96786.38;10468217;28;20048;-76
2023/06/13 06:55:50;;;;;;;11.13;5.35;;;;;;;19.49;55.28;96790.66;10495434;28;20040;-76
2023/06/13 07:01:10;;;;;;;11.32;5.13;;;;;;;19.51;55.10;96787.63;10481705;28;20056;-75
2023/06/13 07:06:30;;;;;;;12.85;5.35;;;;;;;19.50;55.22;96784.13;10495508;28;20048;-76
2023/06/13 07:11:53;;;;;;;13.02;5.43;;;;;;;19.50;55.39;96781.44;10481534;28;20040;-75
2023/06/13 07:17:13;;;;;;;12.73;5.10;;;;;;;19.50;55.40;96789.53;10481859;28;20054;-75
2023/06/13 07:22:32;;;;;;;14.63;5.15;;;;;;;19.51;55.48;96790.34;10480977;28;20481;-75
2023/06/13 07:27:52;;;;;;;11.13;4.78;;;;;;;19.51;55.47;96791.13;10468673;28;20040;-75
2023/06/13 07:33:12;;;;;;;11.05;5.03;;;;;;;19.52;55.39;96787.31;10504579;28;20052;-75
2023/06/13 07:38:32;;;;;;;12.57;4.95;;;;;;;19.52;55.49;96795.41;10503413;28;20049;-75
2023/06/13 07:43:51;;;;;;;13.45;5.13;;;;;;;19.52;55.77;96787.31;10503082;28;20044;-75
2023/06/13 07:49:11;;;;;;;11.88;4.82;;;;;;;19.53;55.69;96783.47;10502656;28;20041;-75
2023/06/13 07:54:30;;;;;;;10.85;4.53;;;;;;;19.52;55.76;96776.50;10502557;28;20543;-75
2023/06/13 07:59:50;;;;;;;9.35;4.93;;;;;;;19.53;55.96;96772.66;10488325;28;20119;-75
2023/06/13 08:05:11;;;;;;;12.77;5.35;;;;;;;19.53;55.83;96778.06;10488125;28;20410;-75
2023/06/13 08:10:30;;;;;;;10.65;5.03;;;;;;;19.53;56.25;96778.06;10501967;28;20417;-76
2023/06/13 08:15:50;;;;;;;9.27;4.80;;;;;;;19.53;56.33;96778.06;10487602;28;20044;-75
2023/06/13 08:21:10;;;;;;;12.13;5.35;;;;;;;19.54;56.57;96776.16;10501695;28;20052;-75
2023/06/13 08:26:32;;;;;;;10.02;4.72;;;;;;;19.54;56.50;96768.88;10487247;28;20048;-75
2023/06/13 08:31:52;;;;;;;9.60;4.72;;;;;;;19.54;56.44;96759.94;10487602;28;20045;-75
2023/06/13 08:37:11;;;;;;;7.90;4.43;;;;;;;19.54;56.65;96760.75;10487540;28;20044;-75
2023/06/13 08:42:32;;;;;;;10.20;4.72;;;;;;;19.55;56.46;96765.03;10486046;28;20052;-75
2023/06/13 08:47:52;;;;;;;7.38;3.90;;;;;;;19.55;56.51;96764.25;10500640;28;20036;-76
2023/06/13 08:53:13;;;;;;;6.85;4.20;;;;;;;19.55;56.59;96758.84;10500493;28;20090;-75
2023/06/13 08:58:35;;;;;;;8.23;4.28;;;;;;;19.55;56.48;96748.81;10486237;28;20067;-76
2023/06/13 09:03:57;;;;;;;9.65;4.65;;;;;;;19.54;56.63;96758.06;10491288;28;20055;-75
2023/06/13 09:09:16;;;;;;;7.18;4.10;;;;;;;19.56;56.61;96760.41;10499874;28;20059;-75
2023/06/13 09:14:35;;;;;;;8.52;4.18;;;;;;;19.55;56.60;96759.63;10499531;28;20485;-75
2023/06/13 09:19:55;;;;;;;7.90;4.53;;;;;;;19.56;56.65;96755.00;10499166;28;20051;-75
2023/06/13 09:25:18;;;;;;;7.60;4.07;;;;;;;19.56;56.81;96755.81;10485230;28;20055;-75
2023/06/13 09:30:42;;;;;;;5.88;3.60;;;;;;;19.57;56.68;96751.19;10498915;28;20040;-75
2023/06/13 09:36:04;;;;;;;6.47;3.67;;;;;;;19.56;56.75;96750.41;10484666;28;20527;-76
2023/06/13 09:41:24;;;;;;;7.45;4.05;;;;;;;19.57;56.77;96737.69;10484566;28;20146;-75
2023/06/13 09:46:44;;;;;;;7.57;4.15;;;;;;;19.58;56.69;96728.44;10498145;28;20040;-76
2023/06/13 09:52:04;;;;;;;9.25;4.28;;;;;;;19.56;56.79;96723.41;10470532;28;20503;-75
2023/06/13 09:57:24;;;;;;;8.60;3.92;;;;;;;19.58;56.70;96730.38;10497653;28;20052;-76
2023/06/13 10:02:44;;;;;;;6.20;3.90;;;;;;;19.58;56.75;96722.25;10506899;28;20501;-75
2023/06/13 10:08:04;;;;;;;7.80;3.70;;;;;;;19.58;56.66;96708.75;10512193;28;20045;-75
2023/06/13 10:13:29;;;;;;;6.13;3.85;;;;;;;19.58;56.90;96714.16;10496996;28;20032;-75
2023/06/13 10:18:52;;;;;;;8.38;3.78;;;;;;;19.58;56.85;96714.16;10496841;28;20044;-75
2023/06/13 10:24:14;;;;;;;9.27;4.20;;;;;;;19.58;56.91;96708.75;10496635;28;20048;-75
2023/06/13 10:29:58;;;;;;;6.03;3.65;;;;;;;19.57;56.86;96694.44;10496336;28;20040;-75
2023/06/13 10:35:39;;;;;;;6.45;3.75;;;;;;;19.58;56.84;96700.63;10511329;28;20413;-76
2023/06/13 10:41:29;;;;;;;7.07;4.00;;;;;;;19.59;56.92;96686.03;10496032;28;20049;-75
2023/06/13 10:46:48;;;;;;;6.18;3.63;;;;;;;19.59;56.85;96675.22;10496036;28;20049;-75
2023/06/13 10:52:10;;;;;;;6.88;3.63;;;;;;;19.59;56.85;96677.91;10468714;28;20446;-75
2023/06/13 10:57:50;;;;;;;5.63;3.80;;;;;;;19.58;56.94;96677.09;10495670;28;20105;-75
2023/06/13 11:03:11;;;;;;;5.25;3.30;;;;;;;19.59;56.94;96673.31;10467205;28;20492;-75
2023/06/13 11:08:32;;;;;;;5.82;3.53;;;;;;;19.58;56.97;96666.31;10481715;28;20040;-75
2023/06/13 11:13:54;;;;;;;6.40;3.50;;;;;;;19.59;56.85;96664.41;10495667;28;20037;-76
2023/06/13 11:19:21;;;;;;;6.93;3.80;;;;;;;19.59;56.88;96657.09;10481244;28;20051;-75
2023/06/13 11:24:42;;;;;;;5.57;3.53;;;;;;;19.60;56.90;96652.47;10481336;28;20102;-75
2023/06/13 11:30:02;;;;;;;6.40;3.50;;;;;;;19.60;57.00;96641.66;10481766;28;20062;-75
2023/06/13 11:35:23;;;;;;;4.72;3.47;;;;;;;19.61;57.00;96637.84;10480962;28;20045;-75
2023/06/13 11:40:44;;;;;;;6.03;3.38;;;;;;;19.61;57.01;96632.44;10494858;28;20082;-76
2023/06/13 11:46:05;;;;;;;6.38;3.45;;;;;;;19.61;57.08;96627.03;10480481;28;20041;-75
2023/06/13 11:51:28;;;;;;;5.68;3.10;;;;;;;19.62;57.10;96617.81;10494712;28;20094;-75
2023/06/13 11:56:52;;;;;;;4.90;3.00;;;;;;;19.61;57.01;96611.59;10480624;28;20048;-75
2023/06/13 12:02:15;;;;;;;6.13;3.10;;;;;;;19.62;57.00;96607.81;10480519;28;20048;-75
2023/06/13 12:07:35;;;;;;;5.95;3.30;;;;;;;19.62;57.06;96596.19;10509457;28;20041;-75
2023/06/13 12:12:56;;;;;;;5.47;3.45;;;;;;;19.63;57.25;96586.97;10494382;28;20608;-75
2023/06/13 12:18:16;;;;;;;4.65;3.15;;;;;;;19.62;57.35;96582.66;10486804;28;20114;-75
2023/06/13 12:23:37;;;;;;;4.68;3.05;;;;;;;19.63;57.13;96571.53;10501404;28;20052;-75
2023/06/13 12:29:05;;;;;;;4.88;3.10;;;;;;;19.62;57.18;96575.38;10501239;28;20405;-75
2023/06/13 12:34:33;;;;;;;3.93;2.90;;;;;;;19.63;57.18;96571.53;10458029;28;20412;-76
2023/06/13 12:40:11;;;;;;;4.53;3.00;;;;;;;19.64;57.00;96577.72;10502064;28;20047;-75
2023/06/13 12:45:31;;;;;;;5.45;3.20;;;;;;;19.63;57.22;96563.44;10501703;28;20303;-75
2023/06/13 12:50:54;;;;;;;5.03;3.20;;;;;;;19.64;57.17;96564.22;10500490;28;20041;-76
2023/06/13 12:56:14;;;;;;;4.57;3.13;;;;;;;19.64;57.42;96564.22;10486579;28;20121;-75
2023/06/13 13:01:34;;;;;;;3.90;2.80;;;;;;;19.65;57.29;96557.69;10472280;28;20054;-75
2023/06/13 13:06:56;;;;;;;4.00;2.85;;;;;;;19.64;57.37;96562.31;10485703;28;20047;-75
2023/06/13 13:12:15;;;;;;;4.20;2.58;;;;;;;19.64;57.34;96556.91;10500685;28;20045;-76
2023/06/13 13:17:35;;;;;;;4.55;2.70;;;;;;;19.64;57.34;96556.09;10485429;28;20045;-75
2023/06/13 13:22:55;;;;;;;5.80;2.60;;;;;;;19.65;57.45;96555.00;10499288;28;20040;-75
2023/06/13 13:28:15;;;;;;;4.47;3.20;;;;;;;19.65;57.29;96572.00;10498329;28;20044;-75
2023/06/13 13:33:34;;;;;;;4.38;2.80;;;;;;;19.65;57.42;96582.03;10498754;28;20098;-75
2023/06/13 13:38:54;;;;;;;5.28;2.97;;;;;;;19.66;57.55;96597.09;10498756;28;20171;-75
2023/06/13 13:44:14;;;;;;;3.85;2.38;;;;;;;19.65;57.45;96606.34;10470466;28;20044;-75
2023/06/13 13:49:36;;;;;;;3.80;2.75;;;;;;;19.64;57.30;96605.56;10484265;28;20389;-75
2023/06/13 13:54:55;;;;;;;2.92;2.50;;;;;;;19.64;57.43;96629.06;10470348;28;20043;-75
2023/06/13 14:00:16;;;;;;;3.47;2.80;;;;;;;19.66;57.33;96634.94;10497787;28;20044;-76
2023/06/13 14:05:36;;;;;;;3.88;2.60;;;;;;;19.65;57.41;96638.78;10470483;28;20052;-75
2023/06/13 14:10:56;;;;;;;4.80;2.75;;;;;;;19.65;57.23;96644.19;10497257;28;20044;-75
2023/06/13 14:16:15;;;;;;;3.58;2.70;;;;;;;19.64;57.31;96648.00;10483155;28;20040;-75
2023/06/13 14:21:34;;;;;;;4.38;2.70;;;;;;;19.65;57.31;96638.78;10482759;28;20408;-75
2023/06/13 14:26:54;;;;;;;3.17;2.53;;;;;;;19.64;57.28;96638.00;10482704;28;20059;-76
2023/06/13 14:32:13;;;;;;;3.10;2.50;;;;;;;19.65;57.31;96617.16;10482330;28;20518;-76
2023/06/13 14:37:33;;;;;;;3.40;2.72;;;;;;;19.65;57.21;96614.44;10510626;28;20484;-75
2023/06/13 14:42:52;;;;;;;3.67;2.38;;;;;;;19.65;57.31;96606.34;10482056;28;20037;-75
2023/06/13 14:48:13;;;;;;;3.40;2.38;;;;;;;19.64;57.09;96604.75;10511178;28;20409;-75
2023/06/13 14:53:35;;;;;;;3.10;2.40;;;;;;;19.63;56.13;96597.78;10496123;28;20499;-75
2023/06/13 14:58:54;;;;;;;6.93;2.35;;;;;;;19.62;56.61;96607.81;10496060;28;20408;-75
2023/06/13 15:04:13;;;;;;;3.25;2.50;;;;;;;19.64;56.81;96610.16;10467634;28;20440;-76
2023/06/13 15:09:33;;;;;;;3.58;2.40;;;;;;;19.64;56.90;96599.34;10495498;28;20047;-75
2023/06/13 15:14:53;;;;;;;3.30;2.20;;;;;;;19.64;56.80;96604.75;10467689;28;20074;-76
2023/06/13 15:20:12;;;;;;;3.08;2.20;;;;;;;19.63;56.82;96595.06;10495236;28;20044;-75
2023/06/13 15:25:32;;;;;;;3.25;2.30;;;;;;;19.64;56.92;96604.75;10510070;28;20041;-75
2023/06/13 15:30:52;;;;;;;3.92;2.30;;;;;;;19.64;56.96;96604.75;10480727;28;20040;-76
2023/06/13 15:36:11;;;;;;;2.40;2.10;;;;;;;19.65;56.97;96600.94;10467142;28;20412;-75
2023/06/13 15:41:31;;;;;;;7.32;2.60;;;;;;;19.66;57.08;96605.22;10480717;28;20044;-76
2023/06/13 15:46:51;;;;;;;3.72;2.28;;;;;;;19.67;57.32;96606.81;10508756;28;20037;-75
2023/06/13 15:52:10;;;;;;;5.70;2.40;;;;;;;19.66;57.48;96597.91;10501634;28;20400;-74
2023/06/13 15:57:30;;;;;;;5.93;2.22;;;;;;;19.66;57.65;96587.09;10488633;28;20143;-74
2023/06/13 16:02:50;;;;;;;3.80;2.30;;;;;;;19.67;57.76;96587.88;10496602;28;20063;-75
2023/06/13 16:08:10;;;;;;;5.55;2.33;;;;;;;19.67;57.73;96587.88;10488217;28;20037;-73
2023/06/13 16:13:30;;;;;;;5.72;2.35;;;;;;;19.65;57.93;96592.84;10501774;28;20040;-73
2023/06/13 16:18:50;;;;;;;3.55;2.10;;;;;;;19.65;57.92;96590.13;10501499;28;20040;-71
2023/06/13 16:24:09;;;;;;;2.70;2.00;;;;;;;19.65;58.07;96584.72;10501500;28;20087;-73
2023/06/13 16:29:29;;;;;;;2.58;2.05;;;;;;;19.65;58.05;96590.91;10501012;28;20474;-72
2023/06/13 16:34:50;;;;;;;3.15;2.10;;;;;;;19.65;57.98;96587.44;10486919;28;20032;-74
2023/06/13 16:40:10;;;;;;;1.95;1.75;;;;;;;19.66;58.23;96586.28;10500983;28;20048;-75
2023/06/13 16:45:31;;;;;;;2.92;1.95;;;;;;;19.65;58.15;96584.72;10515701;28;20488;-75
2023/06/13 16:50:51;;;;;;;3.55;2.25;;;;;;;19.65;58.23;96572.00;10515614;28;20123;-76
2023/06/13 16:56:11;;;;;;;4.53;1.90;;;;;;;19.66;58.21;96572.78;10486699;28;20554;-75
2023/06/13 17:01:31;;;;;;;4.38;1.83;;;;;;;19.65;58.22;96574.69;10485357;28;20131;-75
2023/06/13 17:06:50;;;;;;;3.33;1.90;;;;;;;19.66;58.40;96556.56;10499960;28;20123;-75
2023/06/13 17:12:10;;;;;;;3.92;1.92;;;;;;;19.67;58.42;96553.53;10499665;28;20044;-74
2023/06/13 17:17:30;;;;;;;3.47;2.00;;;;;;;19.65;58.29;96552.28;10499424;28;20055;-74
2023/06/13 17:22:50;;;;;;;3.00;2.03;;;;;;;19.65;58.27;96563.09;10471319;28;20044;-74
2023/06/13 17:28:10;;;;;;;2.13;1.92;;;;;;;19.65;58.47;96555.78;10499304;28;20071;-74
2023/06/13 17:33:29;;;;;;;2.55;2.17;;;;;;;19.65;58.48;96546.91;10498837;28;20154;-74
2023/06/13 17:38:50;;;;;;;5.78;1.90;;;;;;;19.65;58.58;96552.28;10499715;28;20098;-74
2023/06/13 17:44:11;;;;;;;2.58;1.98;;;;;;;19.65;58.48;96553.09;10484416;28;20040;-75
2023/06/13 17:49:31;;;;;;;2.35;1.85;;;;;;;19.66;58.58;96559.28;10498090;28;20040;-73
2023/06/13 17:54:50;;;;;;;3.15;1.75;;;;;;;19.66;58.62;96564.69;10498228;28;20044;-75
2023/06/13 18:00:11;;;;;;;2.95;1.70;;;;;;;19.67;58.74;96560.88;10497187;28;20048;-77
2023/06/13 18:05:34;;;;;;;3.40;2.10;;;;;;;19.68;58.82;96571.34;10484687;28;20123;-76
2023/06/13 18:10:54;;;;;;;6.57;2.00;;;;;;;19.68;58.97;96562.44;10497525;28;20090;-76
2023/06/13 18:16:15;;;;;;;4.00;2.28;;;;;;;19.67;59.34;96567.06;10482682;28;20480;-74
2023/06/13 18:21:35;;;;;;;4.88;2.30;;;;;;;19.68;59.50;96573.25;10483011;28;20041;-71
2023/06/13 18:26:55;;;;;;;3.92;2.38;;;;;;;19.67;59.38;96571.66;10496605;28;20047;-73
2023/06/13 18:32:16;;;;;;;5.78;2.47;;;;;;;19.67;59.44;96571.66;10496624;28;20454;-75
2023/06/13 18:37:36;;;;;;;13.60;2.55;;;;;;;19.66;59.26;96570.88;10468863;28;20511;-75
2023/06/13 18:42:56;;;;;;;4.30;2.40;;;;;;;19.66;59.12;96575.47;10511431;28;20597;-75
2023/06/13 18:48:16;;;;;;;6.68;2.80;;;;;;;19.66;59.07;96576.28;10482387;28;20473;-75
2023/06/13 18:53:36;;;;;;;4.85;2.33;;;;;;;19.65;58.65;96572.00;10481835;28;20484;-75
2023/06/13 18:58:56;;;;;;;3.60;2.75;;;;;;;19.64;57.98;96583.94;10495688;28;20044;-75
2023/06/13 19:04:17;;;;;;;3.45;2.40;;;;;;;19.62;57.39;96591.59;10500931;28;20139;-77
2023/06/13 19:09:37;;;;;;;3.95;2.70;;;;;;;19.62;56.88;96596.19;10495611;28;20489;-76
2023/06/13 19:14:57;;;;;;;4.85;2.72;;;;;;;19.61;56.74;96595.41;10510334;28;20090;-76
2023/06/13 19:20:19;;;;;;;4.03;2.53;;;;;;;19.60;56.61;96596.53;10495364;28;20098;-76
2023/06/13 19:25:39;;;;;;;5.05;2.40;;;;;;;19.60;56.50;96609.22;10472739;28;20496;-76
2023/06/13 19:31:00;;;;;;;5.38;2.70;;;;;;;19.60;56.28;96614.63;10503601;28;20040;-75
2023/06/13 19:36:20;;;;;;;4.72;2.80;;;;;;;19.60;56.43;96615.44;10503447;28;20044;-75
2023/06/13 19:41:40;;;;;;;3.55;2.40;;;;;;;19.62;56.66;96626.72;10489280;28;20037;-75
2023/06/13 19:47:00;;;;;;;9.00;3.67;;;;;;;19.36;52.28;96627.66;10517190;28;20090;-76
2023/06/13 19:52:20;;;;;;;5.55;3.88;;;;;;;19.17;52.27;96636.19;10490011;28;20041;-73
2023/06/13 19:57:41;;;;;;;4.25;3.05;;;;;;;19.27;53.54;96639.66;10503413;28;20132;-72
2023/06/13 20:03:02;;;;;;;6.18;3.25;;;;;;;19.36;54.09;96645.78;10496252;28;20492;-75
2023/06/13 20:08:22;;;;;;;4.43;2.63;;;;;;;19.43;54.37;96643.34;10502157;28;20094;-75
2023/06/13 20:13:42;;;;;;;3.42;3.08;;;;;;;19.46;54.60;96648.09;10501998;28;20499;-76
2023/06/13 20:19:03;;;;;;;3.50;2.92;;;;;;;19.50;54.71;96645.53;10501892;28;20488;-75
2023/06/13 20:24:23;;;;;;;3.20;2.88;;;;;;;19.52;55.01;96649.50;10501409;28;20041;-75
2023/06/13 20:29:44;;;;;;;3.15;2.85;;;;;;;19.52;55.12;96654.09;10487250;28;20053;-75
2023/06/13 20:35:05;;;;;;;3.20;2.80;;;;;;;19.53;55.31;96661.88;10500103;28;20036;-75
2023/06/13 20:40:25;;;;;;;3.85;2.90;;;;;;;19.53;55.48;96664.59;10515971;28;20390;-75
2023/06/13 20:45:50;;;;;;;4.00;2.80;;;;;;;19.53;55.45;96672.69;10486835;28;20044;-75
2023/06/13 20:51:11;;;;;;;2.83;2.50;;;;;;;19.54;55.54;96670.78;10515538;28;20040;-75
2023/06/13 20:56:31;;;;;;;3.33;2.70;;;;;;;19.54;55.68;96678.88;10500494;28;20044;-75
2023/06/13 21:01:54;;;;;;;3.45;3.00;;;;;;;19.54;55.74;96679.69;10497016;28;20087;-75
2023/06/13 21:07:16;;;;;;;3.38;2.92;;;;;;;19.54;55.94;96668.88;10500272;28;20493;-75
2023/06/13 21:12:37;;;;;;;2.80;2.25;;;;;;;19.54;55.97;96671.59;10485725;28;20087;-76
2023/06/13 21:17:56;;;;;;;2.95;2.65;;;;;;;19.54;55.97;96666.19;10514433;28;20044;-75
2023/06/13 21:23:16;;;;;;;3.40;2.58;;;;;;;19.54;55.73;96668.88;10485438;28;20045;-76
2023/06/13 21:28:36;;;;;;;3.67;2.53;;;;;;;19.55;56.00;96659.66;10498763;28;20036;-76
2023/06/13 21:33:55;;;;;;;2.60;2.40;;;;;;;19.53;56.07;96664.59;10484676;28;20048;-76
2023/06/13 21:39:15;;;;;;;2.65;2.40;;;;;;;19.55;56.18;96661.56;10498828;28;20041;-76
2023/06/13 21:44:35;;;;;;;2.80;2.33;;;;;;;19.54;56.13;96660.78;10484386;28;20404;-76
2023/06/13 21:49:55;;;;;;;3.38;2.53;;;;;;;19.54;56.07;96658.06;10483720;28;20040;-76
2023/06/13 21:55:18;;;;;;;2.58;2.38;;;;;;;19.54;56.13;96662.66;10498028;28;20032;-76
2023/06/13 22:00:38;;;;;;;2.40;2.20;;;;;;;19.54;56.25;96666.19;10511798;28;20059;-76
2023/06/13 22:05:57;;;;;;;2.55;2.35;;;;;;;19.54;56.31;96665.38;10497888;28;20045;-76
2023/06/13 22:11:17;;;;;;;2.85;2.65;;;;;;;19.54;56.39;96673.47;10497355;28;20067;-76
2023/06/13 22:16:38;;;;;;;2.50;2.30;;;;;;;19.54;56.42;96668.88;10497172;28;20098;-76
2023/06/13 22:21:58;;;;;;;2.72;2.53;;;;;;;19.54;56.43;96668.88;10482723;28;20550;-76
2023/06/13 22:27:20;;;;;;;2.42;2.22;;;;;;;19.53;56.37;96663.81;10496794;28;20504;-76
2023/06/13 22:32:40;;;;;;;2.42;2.17;;;;;;;19.54;56.27;96665.38;10496712;28;20063;-76
2023/06/13 22:38:01;;;;;;;2.58;2.35;;;;;;;19.53;56.42;96670.00;10482672;28;20385;-76
2023/06/13 22:43:21;;;;;;;2.53;2.33;;;;;;;19.53;56.46;96666.50;10496699;28;20041;-76
2023/06/13 22:48:41;;;;;;;2.50;2.30;;;;;;;19.53;56.44;96661.09;10468070;28;20047;-76
2023/06/13 22:54:00;;;;;;;5.40;2.33;;;;;;;19.53;56.35;96667.28;10510998;28;20037;-76
2023/06/13 22:59:19;;;;;;;2.40;2.20;;;;;;;19.54;56.38;96674.28;10495119;28;20051;-76
2023/06/13 23:04:38;;;;;;;2.17;1.98;;;;;;;19.52;56.50;96665.72;10484618;28;20459;-76
2023/06/13 23:09:58;;;;;;;2.50;2.30;;;;;;;19.53;56.53;96664.59;10510357;28;20036;-76
2023/06/13 23:15:17;;;;;;;2.97;2.40;;;;;;;19.53;56.58;96670.00;10495290;28;20098;-76
2023/06/13 23:20:37;;;;;;;2.25;2.05;;;;;;;19.53;56.58;96672.69;10495309;28;20044;-77
2023/06/13 23:25:56;;;;;;;2.45;2.10;;;;;;;19.53;56.44;96672.69;10510797;28;20094;-76
2023/06/13 23:31:16;;;;;;;2.10;2.00;;;;;;;19.52;56.51;96673.81;10494939;28;20037;-76
2023/06/13 23:36:42;;;;;;;2.15;1.95;;;;;;;19.52;56.46;96663.03;10495089;28;20049;-77
2023/06/13 23:42:02;;;;;;;2.15;1.95;;;;;;;19.51;56.51;96661.41;10496017;28;20045;-76
2023/06/13 23:47:22;;;;;;;2.35;2.10;;;;;;;19.51;56.71;96655.25;10481018;28;20043;-75
2023/06/13 23:52:41;;;;;;;2.30;2.10;;;;;;;19.51;56.54;96656.03;10494616;28;20101;-75
2023/06/13 23:58:00;;;;;;;2.38;2.17;;;;;;;19.51;56.39;96650.63;10494749;28;20040;-76
